Time;durP1;ratioP1;P1;durP2;ratioP2;P2;SDS_P1;SDS_P2;PMS_P1;PMS_P2;Temp;Humidity;BMP_temperature;BMP_pressure;BME280_temperature;BME280_humidity;BME280_pressure;Samples;Min_cycle;Max_cycle;Signal;HPM_P1;HPM_P2
2020/12/22 00:01:51;;;;;;;5.70;2.03;;;12.30;96.10;;;;;;5033024;28;20033;-76
2020/12/22 00:04:16;;;;;;;8.20;2.92;;;12.30;96.10;;;;;;5033743;28;20062;-77
2020/12/22 00:06:42;;;;;;;6.30;2.38;;;12.30;96.10;;;;;;5031900;28;20604;-77
2020/12/22 00:09:07;;;;;;;8.18;2.72;;;12.30;96.10;;;;;;5034234;28;20385;-76
2020/12/22 00:11:33;;;;;;;4.82;1.80;;;12.40;96.10;;;;;;5034082;28;20358;-76
2020/12/22 00:13:59;;;;;;;5.07;1.88;;;12.40;96.10;;;;;;5032826;28;20461;-76
2020/12/22 00:16:32;;;;;;;8.02;2.30;;;12.40;96.10;;;;;;5033479;28;20022;-75
2020/12/22 00:18:58;;;;;;;3.80;1.73;;;12.50;96.10;;;;;;5033137;28;20056;-77
2020/12/22 00:21:23;;;;;;;6.47;2.25;;;12.40;96.10;;;;;;5016180;28;20064;-78
2020/12/22 00:23:49;;;;;;;5.97;2.10;;;12.50;96.10;;;;;;5032890;28;20458;-78
2020/12/22 00:26:17;;;;;;;11.68;2.25;;;12.50;96.10;;;;;;5033070;28;20087;-78
2020/12/22 00:28:42;;;;;;;5.18;2.13;;;12.50;96.10;;;;;;5032459;28;20049;-77
2020/12/22 00:31:08;;;;;;;4.82;2.35;;;12.60;96.10;;;;;;5033116;28;20060;-77
2020/12/22 00:33:33;;;;;;;5.45;2.30;;;12.60;96.10;;;;;;5033727;28;20458;-78
2020/12/22 00:35:59;;;;;;;8.32;3.03;;;12.60;96.10;;;;;;5032481;28;20029;-78
2020/12/22 00:38:25;;;;;;;5.35;2.30;;;12.70;96.10;;;;;;5033343;28;20390;-77
2020/12/22 00:40:50;;;;;;;6.80;2.50;;;12.70;96.10;;;;;;5032440;28;20036;-77
2020/12/22 00:43:16;;;;;;;4.55;2.03;;;12.70;96.10;;;;;;5033381;28;20461;-77
2020/12/22 00:45:41;;;;;;;8.18;2.50;;;12.70;96.10;;;;;;5032280;28;20033;-77
2020/12/22 00:48:07;;;;;;;7.88;2.80;;;12.80;96.10;;;;;;5015167;28;20076;-77
2020/12/22 00:50:32;;;;;;;5.53;2.30;;;12.80;96.10;;;;;;5032993;28;20026;-76
2020/12/22 00:52:58;;;;;;;7.72;2.45;;;12.80;96.10;;;;;;5032257;28;20294;-76
2020/12/22 00:55:24;;;;;;;5.85;2.42;;;12.90;96.20;;;;;;5033032;28;20109;-77
2020/12/22 00:57:52;;;;;;;7.68;2.75;;;12.90;96.10;;;;;;5032255;28;20462;-77
2020/12/22 01:00:20;;;;;;;4.55;2.30;;;12.90;96.10;;;;;;5015306;28;20022;-77
2020/12/22 01:02:46;;;;;;;6.20;2.42;;;12.90;96.10;;;;;;5031807;28;20381;-77
2020/12/22 01:05:11;;;;;;;8.02;3.10;;;13.00;96.20;;;;;;5032282;28;20060;-76
2020/12/22 01:07:37;;;;;;;4.55;2.17;;;12.90;96.10;;;;;;5015018;28;20021;-76
2020/12/22 01:10:03;;;;;;;4.07;1.55;;;13.00;96.20;;;;;;5032070;28;20025;-76
2020/12/22 01:12:29;;;;;;;7.47;2.00;;;13.00;96.10;;;;;;5032412;28;20079;-75
2020/12/22 01:14:55;;;;;;;5.97;2.35;;;13.00;96.10;;;;;;5031722;28;20033;-76
2020/12/22 01:17:20;;;;;;;6.18;2.20;;;13.10;96.20;;;;;;5032250;28;20025;-76
2020/12/22 01:19:46;;;;;;;3.40;1.48;;;13.10;96.20;;;;;;5032059;28;20369;-77
2020/12/22 01:22:12;;;;;;;4.82;1.45;;;13.10;96.20;;;;;;5032511;28;20414;-76
2020/12/22 01:24:38;;;;;;;4.80;1.55;;;13.10;96.10;;;;;;5032503;28;20041;-75
2020/12/22 01:27:04;;;;;;;4.82;1.55;;;13.10;96.10;;;;;;5013756;28;20079;-74
2020/12/22 01:29:29;;;;;;;3.95;1.70;;;13.10;96.20;;;;;;5032285;28;20481;-75
2020/12/22 01:31:55;;;;;;;5.53;1.98;;;13.20;96.20;;;;;;5031592;28;20022;-75
2020/12/22 01:34:21;;;;;;;6.45;2.17;;;13.10;96.10;;;;;;5014592;28;20037;-75
2020/12/22 01:36:47;;;;;;;2.58;1.33;;;13.20;96.20;;;;;;5014009;28;20026;-74
2020/12/22 01:39:12;;;;;;;2.35;1.02;;;13.20;96.20;;;;;;5014205;28;20549;-75
2020/12/22 01:41:38;;;;;;;2.03;1.08;;;13.20;96.20;;;;;;5014458;28;20069;-75
2020/12/22 01:44:06;;;;;;;2.97;1.23;;;13.20;96.20;;;;;;5013844;28;20026;-75
2020/12/22 01:46:38;;;;;;;3.63;1.52;;;13.20;96.20;;;;;;5014595;28;20030;-76
2020/12/22 01:49:06;;;;;;;;;;;13.20;96.20;;;;;;5032070;28;20079;-75
2020/12/22 01:51:33;;;;;;;4.13;1.50;;;13.10;96.20;;;;;;5032093;28;19905;-75
2020/12/22 01:54:00;;;;;;;1.20;1.00;;;13.20;96.30;;;;;;5031434;28;20033;-75
2020/12/22 01:56:26;;;;;;;1.55;1.00;;;13.20;96.30;;;;;;5014367;28;20112;-74
2020/12/22 01:58:52;;;;;;;3.08;1.30;;;13.20;96.30;;;;;;5031455;28;20108;-76
2020/12/22 02:01:18;;;;;;;2.65;1.13;;;13.20;96.30;;;;;;5032039;28;20115;-74
2020/12/22 02:03:45;;;;;;;3.17;1.27;;;13.20;96.30;;;;;;5033947;28;20046;-74
2020/12/22 02:06:10;;;;;;;2.83;1.30;;;13.30;96.30;;;;;;5046162;28;20040;-74
2020/12/22 02:08:36;;;;;;;2.05;1.08;;;13.30;96.30;;;;;;5033565;28;20021;-74
2020/12/22 02:11:02;;;;;;;3.22;1.23;;;13.30;96.30;;;;;;5050905;28;20025;-74
2020/12/22 02:13:27;;;;;;;2.45;1.08;;;13.30;96.30;;;;;;5051886;28;20021;-74
2020/12/22 02:15:53;;;;;;;1.98;1.15;;;13.30;96.30;;;;;;5033845;28;20028;-74
2020/12/22 02:18:19;;;;;;;1.60;0.80;;;13.30;96.30;;;;;;5033886;28;20028;-74
2020/12/22 02:20:46;;;;;;;1.10;0.75;;;13.30;96.30;;;;;;5051593;28;20402;-74
2020/12/22 02:23:12;;;;;;;2.50;0.95;;;13.30;96.30;;;;;;5051368;28;20473;-74
2020/12/22 02:25:45;;;;;;;3.15;0.80;;;13.30;96.30;;;;;;5051754;28;20060;-75
2020/12/22 02:28:11;;;;;;;2.13;1.23;;;13.40;96.40;;;;;;5033784;28;20013;-73
2020/12/22 02:30:38;;;;;;;3.35;0.85;;;13.40;96.40;;;;;;5051866;28;20032;-74
2020/12/22 02:33:04;;;;;;;2.35;0.80;;;13.40;96.40;;;;;;5051006;28;20047;-75
2020/12/22 02:35:30;;;;;;;1.80;1.00;;;13.40;96.40;;;;;;5051473;28;20025;-75
2020/12/22 02:37:55;;;;;;;1.60;0.70;;;13.40;96.40;;;;;;5050925;28;20044;-76
2020/12/22 02:40:21;;;;;;;2.65;1.13;;;13.40;96.40;;;;;;5051305;28;20079;-75
2020/12/22 02:42:47;;;;;;;0.68;0.40;;;13.40;96.40;;;;;;5051156;28;20025;-78
2020/12/22 02:45:13;;;;;;;0.80;0.57;;;13.40;96.40;;;;;;5051339;28;20454;-75
2020/12/22 02:47:39;;;;;;;1.08;0.70;;;13.40;96.40;;;;;;5051184;28;20043;-75
2020/12/22 02:50:04;;;;;;;1.50;0.80;;;13.40;96.40;;;;;;5051182;28;20412;-75
2020/12/22 02:52:30;;;;;;;2.40;0.95;;;13.40;96.40;;;;;;5054906;28;20400;-75
2020/12/22 02:54:55;;;;;;;1.55;0.90;;;13.40;96.40;;;;;;5054414;28;20029;-75
2020/12/22 02:57:21;;;;;;;1.10;0.70;;;13.40;96.40;;;;;;5055441;28;20021;-73
2020/12/22 02:59:47;;;;;;;2.03;0.63;;;13.40;96.50;;;;;;5037094;28;20024;-73
2020/12/22 03:02:12;;;;;;;1.92;0.65;;;13.40;96.60;;;;;;5036579;28;20048;-74
2020/12/22 03:04:38;;;;;;;1.80;0.80;;;13.40;96.50;;;;;;5054963;28;20048;-74
2020/12/22 03:07:03;;;;;;;1.23;0.70;;;13.40;96.50;;;;;;5054104;28;20102;-74
2020/12/22 03:09:29;;;;;;;1.05;0.55;;;13.40;96.50;;;;;;5055420;28;20017;-74
2020/12/22 03:11:55;;;;;;;0.65;0.50;;;13.40;96.50;;;;;;5054534;28;20079;-74
2020/12/22 03:14:20;;;;;;;1.25;0.73;;;13.40;96.50;;;;;;5054465;28;20555;-75
2020/12/22 03:16:46;;;;;;;4.00;1.25;;;13.40;96.50;;;;;;5036188;28;20095;-75
2020/12/22 03:19:11;;;;;;;1.30;0.60;;;13.40;96.60;;;;;;5053409;28;20064;-75
2020/12/22 03:21:37;;;;;;;1.85;0.88;;;13.50;96.60;;;;;;5053995;28;20025;-75
2020/12/22 03:24:03;;;;;;;2.35;1.15;;;13.40;96.60;;;;;;5053336;28;20061;-74
2020/12/22 03:26:28;;;;;;;3.55;1.45;;;13.50;96.60;;;;;;5053973;28;20037;-75
2020/12/22 03:28:54;;;;;;;2.58;1.15;;;13.50;96.60;;;;;;5053305;28;20083;-75
2020/12/22 03:31:19;;;;;;;2.83;1.25;;;13.50;96.60;;;;;;5053928;28;20142;-75
2020/12/22 03:33:45;;;;;;;3.47;1.30;;;13.50;96.60;;;;;;5053770;28;20055;-74
2020/12/22 03:36:11;;;;;;;3.40;1.23;;;13.40;96.60;;;;;;5053154;28;20061;-74
2020/12/22 03:38:39;;;;;;;1.38;0.90;;;13.40;96.60;;;;;;5053361;28;20373;-74
2020/12/22 03:41:05;;;;;;;3.88;1.30;;;13.40;96.60;;;;;;5052710;28;20037;-74
2020/12/22 03:43:31;;;;;;;1.77;1.05;;;13.40;96.60;;;;;;5035189;28;20099;-74
2020/12/22 03:45:57;;;;;;;1.88;0.77;;;13.40;96.60;;;;;;5035844;28;20133;-74
2020/12/22 03:48:27;;;;;;;2.13;0.90;;;13.40;96.60;;;;;;5036382;28;20021;-75
2020/12/22 03:50:53;;;;;;;1.25;0.63;;;13.40;96.60;;;;;;5053337;28;20021;-75
2020/12/22 03:53:19;;;;;;;0.95;0.80;;;13.40;96.70;;;;;;5054215;28;20017;-74
2020/12/22 03:55:44;;;;;;;1.98;1.08;;;13.40;96.60;;;;;;5054189;28;20393;-74
2020/12/22 03:58:10;;;;;;;1.35;0.65;;;13.40;96.70;;;;;;5035542;28;20052;-74
2020/12/22 04:00:36;;;;;;;2.15;0.60;;;13.40;96.70;;;;;;5053889;28;20182;-74
2020/12/22 04:03:02;;;;;;;1.30;0.68;;;13.40;96.70;;;;;;5035238;28;20021;-74
2020/12/22 04:05:27;;;;;;;1.70;0.57;;;13.40;96.70;;;;;;5055490;28;20051;-73
2020/12/22 04:07:53;;;;;;;1.83;0.90;;;13.30;96.60;;;;;;5035246;28;20035;-74
2020/12/22 04:10:18;;;;;;;0.88;0.70;;;13.30;96.70;;;;;;5053681;28;20033;-74
2020/12/22 04:12:44;;;;;;;2.42;0.70;;;13.30;96.70;;;;;;5053667;28;20071;-74
2020/12/22 04:15:10;;;;;;;0.68;0.50;;;13.30;96.70;;;;;;5035084;28;20025;-74
2020/12/22 04:17:35;;;;;;;1.75;0.50;;;13.30;96.70;;;;;;5035625;28;20021;-74
2020/12/22 04:20:01;;;;;;;1.65;0.77;;;13.30;96.70;;;;;;5052938;28;20017;-74
2020/12/22 04:22:27;;;;;;;1.35;0.65;;;13.30;96.80;;;;;;5035764;28;20025;-74
2020/12/22 04:24:52;;;;;;;0.68;0.50;;;13.30;96.70;;;;;;5053458;28;20123;-74
2020/12/22 04:27:18;;;;;;;0.95;0.47;;;13.30;96.70;;;;;;5053239;28;20029;-74
2020/12/22 04:29:43;;;;;;;0.50;0.45;;;13.30;96.70;;;;;;5035519;28;20021;-74
2020/12/22 04:32:09;;;;;;;0.50;0.50;;;13.30;96.70;;;;;;5053011;28;20025;-73
2020/12/22 04:34:35;;;;;;;1.23;0.68;;;13.20;96.70;;;;;;5053183;28;20098;-73
2020/12/22 04:37:00;;;;;;;0.63;0.50;;;13.20;96.70;;;;;;5053046;28;20461;-73
2020/12/22 04:39:26;;;;;;;1.13;0.63;;;13.20;96.80;;;;;;5053433;28;20025;-73
2020/12/22 04:41:54;;;;;;;0.98;0.70;;;13.20;96.90;;;;;;5053177;28;20056;-73
2020/12/22 04:44:20;;;;;;;2.25;0.60;;;13.20;96.90;;;;;;5052926;28;20053;-73
2020/12/22 04:46:50;;;;;;;2.22;0.70;;;13.10;96.90;;;;;;5053145;28;20068;-74
2020/12/22 04:49:20;;;;;;;1.55;0.80;;;13.10;96.90;;;;;;5052470;28;20263;-74
2020/12/22 04:51:49;;;;;;;1.73;0.95;;;13.20;97.00;;;;;;5053207;28;20044;-74
2020/12/22 04:54:17;;;;;;;1.10;0.57;;;13.20;97.00;;;;;;5034546;28;20032;-74
2020/12/22 04:56:45;;;;;;;2.33;0.90;;;13.10;96.90;;;;;;5052964;28;20491;-74
2020/12/22 04:59:10;;;;;;;1.67;0.82;;;13.20;97.00;;;;;;5052392;28;20071;-74
2020/12/22 05:01:37;;;;;;;2.08;1.05;;;13.20;97.00;;;;;;5052504;28;20017;-73
2020/12/22 05:04:02;;;;;;;1.75;0.80;;;13.20;97.00;;;;;;5038366;28;20044;-74
2020/12/22 05:06:28;;;;;;;2.40;0.75;;;13.20;97.00;;;;;;5072355;28;20032;-74
2020/12/22 05:08:54;;;;;;;1.58;0.73;;;13.20;97.00;;;;;;5072648;28;20401;-74
2020/12/22 05:11:19;;;;;;;1.02;0.70;;;13.20;97.00;;;;;;5070624;28;20024;-74
2020/12/22 05:13:48;;;;;;;1.95;0.82;;;13.20;97.00;;;;;;5072092;28;20470;-74
2020/12/22 05:16:13;;;;;;;0.98;0.70;;;13.20;97.00;;;;;;5070637;28;20043;-74
2020/12/22 05:18:39;;;;;;;1.15;0.70;;;13.20;96.90;;;;;;5072520;28;20453;-75
2020/12/22 05:21:05;;;;;;;2.03;0.75;;;13.20;96.90;;;;;;5071626;28;20029;-75
2020/12/22 05:23:31;;;;;;;1.30;0.80;;;13.10;96.90;;;;;;5071031;28;20024;-75
2020/12/22 05:25:58;;;;;;;0.55;0.50;;;13.10;96.90;;;;;;5071098;28;20024;-75
2020/12/22 05:28:27;;;;;;;1.00;0.63;;;13.10;97.00;;;;;;5072330;28;20052;-75
2020/12/22 05:30:52;;;;;;;0.77;0.55;;;13.10;96.90;;;;;;5070964;28;20017;-74
2020/12/22 05:33:18;;;;;;;0.88;0.70;;;13.10;97.00;;;;;;5070453;28;20455;-75
2020/12/22 05:35:47;;;;;;;1.33;0.50;;;13.10;96.90;;;;;;5072299;28;20024;-75
2020/12/22 05:38:18;;;;;;;2.38;0.50;;;13.10;97.00;;;;;;5071451;28;20024;-74
2020/12/22 05:40:44;;;;;;;1.67;0.98;;;13.10;97.00;;;;;;5072339;28;20043;-75
2020/12/22 05:43:11;;;;;;;1.02;0.70;;;13.10;96.90;;;;;;5063617;28;20025;-77
2020/12/22 05:45:38;;;;;;;3.28;1.17;;;13.10;96.90;;;;;;5061537;28;20028;-76
2020/12/22 05:48:06;;;;;;;2.42;0.85;;;13.10;97.00;;;;;;5059283;28;20354;-78
2020/12/22 05:50:32;;;;;;;2.15;1.10;;;13.10;97.00;;;;;;5055909;28;20028;-77
2020/12/22 05:52:58;;;;;;;2.10;0.80;;;13.10;97.00;;;;;;5052144;28;20112;-76
2020/12/22 05:55:29;;;;;;;1.92;0.93;;;13.10;97.00;;;;;;5051437;28;20025;-76
2020/12/22 05:58:14;;;;;;;2.70;1.10;;;13.10;97.00;;;;;;5051008;28;20017;-77
2020/12/22 06:00:42;;;;;;;1.45;0.70;;;13.10;96.90;;;;;;5051672;28;20017;-77
2020/12/22 06:03:15;;;;;;;2.45;0.80;;;13.10;97.00;;;;;;5050017;28;20066;-75
2020/12/22 06:05:45;;;;;;;2.53;1.00;;;13.10;96.90;;;;;;5041850;28;20057;-70
2020/12/22 06:08:13;;;;;;;1.58;0.90;;;13.10;96.90;;;;;;5029109;28;20025;-71
2020/12/22 06:10:41;;;;;;;2.70;0.70;;;13.10;96.90;;;;;;5029817;28;20033;-71
2020/12/22 06:13:08;;;;;;;1.67;0.80;;;13.10;97.00;;;;;;5028862;28;20067;-71
2020/12/22 06:15:35;;;;;;;1.38;0.70;;;13.10;97.00;;;;;;5029580;28;20037;-71
2020/12/22 06:18:01;;;;;;;0.77;0.70;;;13.10;97.00;;;;;;5028896;28;20286;-71
2020/12/22 06:20:29;;;;;;;1.30;0.77;;;13.10;97.10;;;;;;5029284;28;20122;-71
2020/12/22 06:23:05;;;;;;;2.30;1.33;;;13.10;97.00;;;;;;5029340;28;20018;-72
2020/12/22 06:25:32;;;;;;;1.42;0.93;;;13.10;97.00;;;;;;5031325;28;20036;-76
2020/12/22 06:27:58;;;;;;;1.90;0.95;;;13.10;97.00;;;;;;5035883;28;20026;-76
2020/12/22 06:30:35;;;;;;;1.40;0.90;;;13.10;97.00;;;;;;5035188;28;20027;-77
2020/12/22 06:33:21;;;;;;;1.70;1.27;;;13.10;97.00;;;;;;5035434;28;20398;-76
2020/12/22 06:36:19;;;;;;;2.83;1.60;;;13.10;97.00;;;;;;5018087;28;20519;-76
2020/12/22 06:38:58;;;;;;;7.65;2.20;;;13.10;97.00;;;;;;5016866;28;20108;-76
2020/12/22 06:41:32;;;;;;;5.43;2.75;;;13.10;97.00;;;;;;5020808;28;20350;-77
2020/12/22 06:44:10;;;;;;;6.00;1.90;;;13.10;97.00;;;;;;5034943;28;20102;-77
2020/12/22 06:46:35;;;;;;;5.32;2.38;;;13.20;97.10;;;;;;5040662;28;20041;-76
2020/12/22 06:49:02;;;;;;;10.18;3.55;;;13.10;97.00;;;;;;5040168;28;20005;-76
2020/12/22 06:51:32;;;;;;;8.45;2.00;;;13.20;97.00;;;;;;5036444;28;20029;-77
2020/12/22 06:54:03;;;;;;;6.25;2.60;;;13.20;97.00;;;;;;5035755;28;20105;-77
2020/12/22 06:56:58;;;;;;;5.72;2.47;;;13.20;97.00;;;;;;5034926;28;20389;-77
2020/12/22 06:59:44;;;;;;;6.07;2.50;;;13.20;96.90;;;;;;5013264;28;20044;-77
2020/12/22 07:02:31;;;;;;;4.97;2.15;;;13.20;97.00;;;;;;5017006;28;20029;-77
2020/12/22 07:04:58;;;;;;;6.75;2.80;;;13.20;96.90;;;;;;5017116;28;20040;-77
2020/12/22 07:07:23;;;;;;;6.97;3.75;;;13.20;96.90;;;;;;5017012;28;20017;-77
2020/12/22 07:09:58;;;;;;;5.75;2.78;;;13.20;96.90;;;;;;5017339;28;20462;-77
2020/12/22 07:12:26;;;;;;;6.70;3.08;;;13.20;96.90;;;;;;5016884;28;20079;-77
2020/12/22 07:14:51;;;;;;;5.57;2.65;;;13.20;96.90;;;;;;5035024;28;20056;-76
2020/12/22 07:17:18;;;;;;;4.68;2.10;;;13.20;96.80;;;;;;5016497;28;20461;-77
2020/12/22 07:19:54;;;;;;;3.67;2.10;;;13.20;96.70;;;;;;5034989;28;20036;-77
2020/12/22 07:22:20;;;;;;;3.88;1.88;;;13.20;96.70;;;;;;5033813;28;20017;-78
2020/12/22 07:24:46;;;;;;;4.20;2.42;;;13.20;96.70;;;;;;5016875;28;20072;-78
2020/12/22 07:27:12;;;;;;;4.90;1.65;;;13.20;96.60;;;;;;5016531;28;20057;-81
2020/12/22 07:29:42;;;;;;;4.65;1.75;;;13.10;96.60;;;;;;5016767;28;20052;-77
2020/12/22 07:32:09;;;;;;;3.13;1.50;;;13.10;96.60;;;;;;5034439;28;20022;-77
2020/12/22 07:34:35;;;;;;;3.58;1.15;;;13.10;96.60;;;;;;5016917;28;20037;-77
2020/12/22 07:37:10;;;;;;;3.65;0.80;;;13.10;96.60;;;;;;5034091;28;20049;-76
2020/12/22 07:39:37;;;;;;;4.15;1.25;;;13.10;96.60;;;;;;5034639;28;20148;-77
2020/12/22 07:42:17;;;;;;;2.42;0.98;;;13.10;96.60;;;;;;5034612;28;20139;-76
2020/12/22 07:44:44;;;;;;;3.50;0.73;;;13.10;96.60;;;;;;5034140;28;20385;-78
2020/12/22 07:47:13;;;;;;;1.13;0.60;;;13.10;96.60;;;;;;5016147;28;20060;-78
2020/12/22 07:49:40;;;;;;;1.70;0.80;;;13.10;96.50;;;;;;5034283;28;20032;-77
2020/12/22 07:52:06;;;;;;;1.25;0.55;;;13.10;96.50;;;;;;5034265;28;20022;-77
2020/12/22 07:54:32;;;;;;;2.75;0.60;;;13.10;96.50;;;;;;5033751;28;20036;-77
2020/12/22 07:56:59;;;;;;;1.90;0.55;;;13.10;96.40;;;;;;5016475;28;20150;-77
2020/12/22 07:59:26;;;;;;;0.95;0.60;;;13.10;96.40;;;;;;5015737;28;20107;-77
2020/12/22 08:01:52;;;;;;;0.30;0.30;;;13.10;96.30;;;;;;5016125;28;20457;-78
2020/12/22 08:04:26;;;;;;;0.57;0.57;;;13.10;96.30;;;;;;5033547;28;20025;-77
2020/12/22 08:07:06;;;;;;;0.30;0.30;;;13.10;96.30;;;;;;5033556;28;20056;-77
2020/12/22 08:09:41;;;;;;;0.68;0.40;;;13.10;96.30;;;;;;5033627;28;20377;-77
2020/12/22 08:12:09;;;;;;;1.00;0.63;;;13.10;96.20;;;;;;5016235;28;20026;-77
2020/12/22 08:14:41;;;;;;;0.30;0.30;;;13.10;96.20;;;;;;5033280;28;20057;-77
2020/12/22 08:17:13;;;;;;;;;;;13.10;96.20;;;;;;5033769;28;20037;-76
2020/12/22 08:19:39;;;;;;;0.60;0.40;;;13.00;96.10;;;;;;5015838;28;19912;-76
2020/12/22 08:22:05;;;;;;;2.45;0.68;;;12.90;96.20;;;;;;5015827;28;20026;-77
2020/12/22 08:24:34;;;;;;;1.63;0.40;;;12.90;96.20;;;;;;5015087;28;20033;-75
2020/12/22 08:26:59;;;;;;;2.28;1.00;;;12.90;96.20;;;;;;5033516;28;20036;-76
2020/12/22 08:29:28;;;;;;;1.20;0.60;;;12.80;96.30;;;;;;5032590;28;20018;-74
2020/12/22 08:32:01;;;;;;;3.35;0.60;;;12.90;96.30;;;;;;5033539;28;20109;-74
2020/12/22 08:34:28;;;;;;;0.60;0.40;;;12.90;96.30;;;;;;5032804;28;20109;-74
2020/12/22 08:36:54;;;;;;;0.93;0.50;;;12.80;96.30;;;;;;5015621;28;20366;-76
2020/12/22 08:39:25;;;;;;;0.63;0.50;;;12.90;96.30;;;;;;5032806;28;20385;-74
2020/12/22 08:41:55;;;;;;;1.98;0.50;;;12.90;96.20;;;;;;5015749;28;20017;-74
2020/12/22 08:44:26;;;;;;;0.40;0.40;;;12.90;96.20;;;;;;5014865;28;20030;-74
2020/12/22 08:46:53;;;;;;;1.03;0.30;;;12.90;96.20;;;;;;5015611;28;20028;-74
2020/12/22 08:49:26;;;;;;;0.40;0.40;;;12.90;96.20;;;;;;5031828;28;20422;-75
2020/12/22 08:51:56;;;;;;;4.30;0.77;;;13.00;96.20;;;;;;5033250;28;20108;-74
2020/12/22 08:54:26;;;;;;;0.60;0.50;;;13.00;96.10;;;;;;5032772;28;20037;-74
2020/12/22 08:56:52;;;;;;;0.40;0.40;;;13.00;96.10;;;;;;5034767;28;20026;-73
2020/12/22 08:59:27;;;;;;;0.63;0.40;;;13.00;96.10;;;;;;5043486;28;20025;-76
2020/12/22 09:01:53;;;;;;;0.47;0.47;;;13.00;96.00;;;;;;5035830;28;20026;-75
2020/12/22 09:04:31;;;;;;;0.63;0.52;;;12.90;96.00;;;;;;5045404;28;20493;-74
2020/12/22 09:07:10;;;;;;;1.75;0.50;;;13.00;96.00;;;;;;5033472;28;20066;-75
2020/12/22 09:09:36;;;;;;;0.50;0.50;;;12.90;96.00;;;;;;5014607;28;20147;-76
2020/12/22 09:12:03;;;;;;;3.17;0.50;;;12.90;96.10;;;;;;5015156;28;20056;-77
2020/12/22 09:14:38;;;;;;;1.98;0.43;;;12.90;96.10;;;;;;5032424;28;20029;-77
2020/12/22 09:17:04;;;;;;;1.15;0.85;;;12.90;96.10;;;;;;5015231;28;20070;-75
2020/12/22 09:19:50;;;;;;;0.73;0.40;;;12.90;96.20;;;;;;5014483;28;20461;-76
2020/12/22 09:22:21;;;;;;;4.80;1.25;;;12.90;96.10;;;;;;5014703;28;20025;-75
2020/12/22 09:24:53;;;;;;;5.15;0.80;;;12.90;96.10;;;;;;5014667;28;20033;-74
2020/12/22 09:27:28;;;;;;;3.22;0.70;;;12.90;96.10;;;;;;5014103;28;20025;-74
2020/12/22 09:29:54;;;;;;;3.92;0.60;;;12.90;96.10;;;;;;5014583;28;20032;-76
2020/12/22 09:32:19;;;;;;;6.60;1.20;;;12.80;96.10;;;;;;5031861;28;20017;-75
2020/12/22 09:34:45;;;;;;;2.25;0.98;;;12.80;96.10;;;;;;5032258;28;20037;-79
2020/12/22 09:37:11;;;;;;;2.33;0.77;;;12.80;96.10;;;;;;5014888;28;20430;-79
2020/12/22 09:39:37;;;;;;;2.55;0.90;;;12.80;96.10;;;;;;5014875;28;20026;-80
2020/12/22 09:42:06;;;;;;;6.30;1.00;;;12.80;96.10;;;;;;5032589;28;20128;-80
2020/12/22 09:44:34;;;;;;;3.65;0.63;;;12.80;96.10;;;;;;5014192;28;20025;-80
2020/12/22 09:46:59;;;;;;;1.80;1.02;;;12.80;96.10;;;;;;5015282;28;20367;-80
2020/12/22 09:49:26;;;;;;;1.77;0.65;;;12.80;96.10;;;;;;5031949;28;20075;-80
2020/12/22 09:51:53;;;;;;;4.18;0.60;;;12.80;96.10;;;;;;5014956;28;20465;-80
2020/12/22 09:54:22;;;;;;;1.33;0.50;;;12.80;96.10;;;;;;5032439;28;20485;-80
2020/12/22 09:56:49;;;;;;;0.55;0.40;;;12.90;96.00;;;;;;5014595;28;20424;-79
2020/12/22 09:59:16;;;;;;;2.70;1.10;;;12.90;95.90;;;;;;5014556;28;20047;-80
2020/12/22 10:01:42;;;;;;;3.33;0.75;;;13.00;95.90;;;;;;5032208;28;20021;-81
2020/12/22 10:04:08;;;;;;;0.70;0.55;;;13.00;95.90;;;;;;5014343;28;20094;-80
2020/12/22 10:06:34;;;;;;;1.25;0.60;;;13.00;95.80;;;;;;5038775;28;20085;-80
2020/12/22 10:09:00;;;;;;;3.60;0.70;;;13.00;95.80;;;;;;5050582;28;20032;-79
2020/12/22 10:11:26;;;;;;;1.05;0.80;;;13.00;95.80;;;;;;5051536;28;20373;-77
2020/12/22 10:13:53;;;;;;;1.98;0.77;;;13.00;95.70;;;;;;5050735;28;20127;-77
2020/12/22 10:16:21;;;;;;;1.08;0.68;;;13.00;95.70;;;;;;5050820;28;20487;-77
2020/12/22 10:18:47;;;;;;;3.78;0.90;;;13.00;95.70;;;;;;5051934;28;20017;-80
2020/12/22 10:21:14;;;;;;;1.48;0.80;;;13.10;95.70;;;;;;5051882;28;20032;-79
2020/12/22 10:23:41;;;;;;;1.20;0.68;;;13.10;95.60;;;;;;5051208;28;20037;-80
2020/12/22 10:26:09;;;;;;;0.85;0.70;;;13.10;95.60;;;;;;5050604;28;20402;-80
2020/12/22 10:28:37;;;;;;;0.68;0.60;;;13.00;95.60;;;;;;5051288;28;20453;-81
2020/12/22 10:31:03;;;;;;;1.83;0.90;;;13.00;95.60;;;;;;5052256;28;20025;-80
2020/12/22 10:33:29;;;;;;;1.10;0.50;;;13.00;95.70;;;;;;5051295;28;20028;-79
2020/12/22 10:35:55;;;;;;;2.42;0.70;;;13.00;95.70;;;;;;5051817;28;20025;-81
2020/12/22 10:38:22;;;;;;;1.27;0.65;;;13.00;95.70;;;;;;5051522;28;20075;-80
2020/12/22 10:40:48;;;;;;;3.15;1.00;;;12.90;95.70;;;;;;5050773;28;20069;-80
2020/12/22 10:43:14;;;;;;;1.15;0.70;;;12.90;95.70;;;;;;5049885;28;20090;-80
2020/12/22 10:45:40;;;;;;;3.70;1.08;;;12.90;95.70;;;;;;5049874;28;20033;-80
2020/12/22 10:48:06;;;;;;;1.80;0.95;;;12.90;95.70;;;;;;5051670;28;20461;-80
2020/12/22 10:50:34;;;;;;;2.10;1.02;;;12.90;95.70;;;;;;5050993;28;20029;-81
2020/12/22 10:53:00;;;;;;;1.70;0.75;;;12.80;95.70;;;;;;5051791;28;20025;-80
2020/12/22 10:55:26;;;;;;;1.52;0.73;;;12.80;95.80;;;;;;5051051;28;20055;-81
2020/12/22 10:57:51;;;;;;;3.40;0.82;;;12.80;95.80;;;;;;5050023;28;20028;-80
2020/12/22 11:00:17;;;;;;;1.02;0.80;;;12.70;95.90;;;;;;5051525;28;20029;-80
2020/12/22 11:02:49;;;;;;;1.98;0.77;;;12.70;95.90;;;;;;5049871;28;20527;-80
2020/12/22 11:05:15;;;;;;;1.88;1.10;;;12.70;95.80;;;;;;5050430;28;20107;-80
2020/12/22 11:07:53;;;;;;;2.90;1.30;;;12.70;95.90;;;;;;5050099;28;20029;-80
2020/12/22 11:10:18;;;;;;;2.75;0.85;;;12.70;95.80;;;;;;5052679;28;20021;-80
2020/12/22 11:12:44;;;;;;;3.83;1.10;;;12.70;95.90;;;;;;5067826;28;20215;-79
2020/12/22 11:15:10;;;;;;;3.45;1.20;;;12.70;95.80;;;;;;5064200;28;20029;-80
2020/12/22 11:17:35;;;;;;;3.00;1.20;;;12.70;95.80;;;;;;5066225;28;20016;-80
2020/12/22 11:20:02;;;;;;;2.25;1.00;;;12.70;95.90;;;;;;5069582;28;20024;-79
2020/12/22 11:22:28;;;;;;;1.42;0.70;;;12.70;95.90;;;;;;5055685;28;20025;-78
2020/12/22 11:24:54;;;;;;;1.23;0.90;;;12.70;95.90;;;;;;5055843;28;20166;-79
2020/12/22 11:27:19;;;;;;;4.38;1.25;;;12.70;95.80;;;;;;5054767;28;20032;-79
2020/12/22 11:29:45;;;;;;;3.53;1.10;;;12.70;95.80;;;;;;5053569;28;20111;-79
2020/12/22 11:32:12;;;;;;;1.63;0.80;;;12.60;95.80;;;;;;5054857;28;20052;-79
2020/12/22 11:34:37;;;;;;;6.13;0.73;;;12.50;95.80;;;;;;5054318;28;20021;-79
2020/12/22 11:37:03;;;;;;;1.50;0.60;;;12.50;95.90;;;;;;5054533;28;20075;-77
2020/12/22 11:39:29;;;;;;;1.83;0.68;;;12.50;95.90;;;;;;5052917;28;20124;-80
2020/12/22 11:42:01;;;;;;;1.05;0.50;;;12.50;95.90;;;;;;5054694;28;20123;-78
2020/12/22 11:44:27;;;;;;;1.90;0.73;;;12.50;95.90;;;;;;5053281;28;20056;-80
2020/12/22 11:46:53;;;;;;;2.05;0.90;;;12.50;95.90;;;;;;5052972;28;20377;-79
2020/12/22 11:49:18;;;;;;;1.15;0.65;;;12.50;95.80;;;;;;5054215;28;20025;-80
2020/12/22 11:51:44;;;;;;;2.35;0.82;;;12.40;95.80;;;;;;5053952;28;20021;-80
2020/12/22 11:54:10;;;;;;;0.73;0.70;;;12.40;95.80;;;;;;5053275;28;20039;-80
2020/12/22 11:56:35;;;;;;;1.35;0.30;;;12.30;95.80;;;;;;5052474;28;20025;-81
2020/12/22 11:59:01;;;;;;;0.85;0.43;;;12.30;95.90;;;;;;5054005;28;20100;-80
2020/12/22 12:01:28;;;;;;;0.63;0.35;;;12.30;95.90;;;;;;5054240;28;20060;-80
2020/12/22 12:03:54;;;;;;;0.93;0.50;;;12.30;95.90;;;;;;5053228;28;20053;-80
2020/12/22 12:06:21;;;;;;;0.40;0.30;;;12.20;95.80;;;;;;5043761;28;20608;-79
2020/12/22 12:08:47;;;;;;;1.30;0.52;;;12.20;95.80;;;;;;5016167;28;20393;-79
2020/12/22 12:11:13;;;;;;;0.70;0.43;;;12.20;95.80;;;;;;5016634;28;20075;-80
2020/12/22 12:13:39;;;;;;;1.65;0.50;;;12.10;95.80;;;;;;5033615;28;20033;-80
2020/12/22 12:16:05;;;;;;;0.63;0.50;;;12.10;95.70;;;;;;5016312;28;20025;-81
2020/12/22 12:18:31;;;;;;;0.65;0.57;;;12.10;95.70;;;;;;5015743;28;20025;-80
2020/12/22 12:20:56;;;;;;;1.65;0.50;;;12.10;95.70;;;;;;5016536;28;20084;-79
2020/12/22 12:23:22;;;;;;;0.47;0.40;;;12.00;95.70;;;;;;5033948;28;20465;-79
2020/12/22 12:25:48;;;;;;;0.40;0.40;;;12.00;95.70;;;;;;5033727;28;20048;-78
2020/12/22 12:28:13;;;;;;;0.93;0.40;;;12.10;95.70;;;;;;5016604;28;20072;-80
2020/12/22 12:30:39;;;;;;;0.95;0.60;;;12.10;95.60;;;;;;5035167;28;20123;-79
2020/12/22 12:33:05;;;;;;;0.98;0.70;;;12.10;95.90;;;;;;5016616;28;20130;-79
2020/12/22 12:35:32;;;;;;;0.40;0.40;;;12.10;95.60;;;;;;5016348;28;20366;-79
2020/12/22 12:37:58;;;;;;;0.45;0.38;;;12.10;95.60;;;;;;5017160;28;20381;-80
2020/12/22 12:40:25;;;;;;;1.10;0.50;;;12.10;95.60;;;;;;5017630;28;20074;-79
2020/12/22 12:42:50;;;;;;;0.32;0.32;;;12.10;95.50;;;;;;5017803;28;20513;-79
2020/12/22 12:45:16;;;;;;;1.17;0.50;;;12.10;95.50;;;;;;5017895;28;20061;-79
2020/12/22 12:47:42;;;;;;;0.45;0.43;;;12.10;95.50;;;;;;5015617;28;20470;-80
2020/12/22 12:50:08;;;;;;;1.45;0.50;;;12.10;95.40;;;;;;5016063;28;20045;-80